Terminal Aerodrome Forecast
Issued by NWS

Home | Current Version | Previous Version | Text Only | Print | Product List | Glossary On
Versions: 1 2 3 4 5 6 7 8 9 10 11 12 13 14 15 16 17
000
FTAK31 PAJN 292200 AAA
TAFAPG
TAF AMD
PAPG 292231Z 2923/3018 03005KT 6SM -SHRA BR FEW005 BKN015 OVC025
      TEMPO 2923/3003 2SM -SHRA BR SCT004 BKN010
     FM300300 VRB03KT 6SM -SHRA BR FEW004 BKN015 BKN050
      TEMPO 3003/3007 2SM -SHRA BR SCT004
     FM300700 00000KT 4SM -SHRA BR SCT005 BKN025 OVC050
     FM301600 06004KT P6SM VCSH SCT025 BKN050 BKN100
      AMD LTD TO CLD VIS AND WIND 3006/3015=

USA.gov is the U.S. government's official web portal to all federal, state and local government web resources and services.